createdAt,value
2019-03-16T00:00:02.389Z,0.00
2019-03-16T00:01:02.398Z,0.00
2019-03-16T00:02:02.361Z,0.00
2019-03-16T00:03:02.351Z,0.00
2019-03-16T00:04:02.339Z,0.00
2019-03-16T00:05:02.367Z,0.00
2019-03-16T00:06:02.333Z,0.00
2019-03-16T00:07:02.309Z,0.00
2019-03-16T00:08:02.306Z,0.00
2019-03-16T00:09:02.283Z,0.00
2019-03-16T00:10:02.276Z,0.00
2019-03-16T00:11:02.283Z,0.00
2019-03-16T00:12:02.405Z,0.00
2019-03-16T00:13:02.275Z,0.00
2019-03-16T00:14:02.234Z,0.00
2019-03-16T00:15:02.257Z,0.00
2019-03-16T00:16:02.230Z,0.00
2019-03-16T00:17:02.194Z,0.00
2019-03-16T00:18:02.191Z,0.00
2019-03-16T00:19:02.171Z,0.00
2019-03-16T00:20:02.170Z,0.00
2019-03-16T00:21:02.185Z,0.00
2019-03-16T00:22:02.170Z,0.00
2019-03-16T00:23:02.159Z,0.00
2019-03-16T00:24:02.115Z,0.00
2019-03-16T00:25:02.104Z,0.00
2019-03-16T00:26:02.104Z,0.00
2019-03-16T00:27:02.087Z,0.00
2019-03-16T00:28:02.084Z,0.00
2019-03-16T00:29:02.105Z,0.00
2019-03-16T00:30:02.064Z,0.00
2019-03-16T00:31:02.039Z,0.00
2019-03-16T00:32:12.789Z,0.00
2019-03-16T00:33:03.061Z,0.00
2019-03-16T00:34:02.009Z,0.00
2019-03-16T00:35:02.046Z,0.00
2019-03-16T00:36:01.985Z,0.00
2019-03-16T00:37:01.992Z,0.00
2019-03-16T00:38:01.981Z,0.00
2019-03-16T00:39:01.970Z,0.00
2019-03-16T00:40:01.980Z,0.00
2019-03-16T00:41:01.934Z,0.00
2019-03-16T00:42:01.917Z,0.00
2019-03-16T00:43:01.908Z,0.00
2019-03-16T00:44:01.909Z,0.00
2019-03-16T00:45:01.931Z,0.00
2019-03-16T00:46:01.882Z,0.00
2019-03-16T00:47:01.898Z,0.00
2019-03-16T00:48:01.865Z,0.00
2019-03-16T00:49:01.907Z,0.00
2019-03-16T00:50:01.845Z,0.00
2019-03-16T00:51:01.866Z,0.00
2019-03-16T00:52:01.820Z,0.00
2019-03-16T00:53:01.818Z,0.00
2019-03-16T00:54:01.792Z,0.00
2019-03-16T00:55:01.794Z,0.00
2019-03-16T00:56:01.818Z,0.00
2019-03-16T00:57:01.780Z,0.00
2019-03-16T00:58:01.753Z,0.00
2019-03-16T00:59:01.872Z,0.00
2019-03-16T01:00:01.725Z,0.00
2019-03-16T01:01:01.743Z,0.00
2019-03-16T01:02:01.839Z,0.00
2019-03-16T01:03:01.733Z,0.00
2019-03-16T01:04:01.689Z,0.00
2019-03-16T01:05:01.671Z,0.00
2019-03-16T01:06:01.665Z,0.00
2019-03-16T01:07:01.648Z,0.00
2019-03-16T01:08:01.681Z,0.00
2019-03-16T01:09:01.649Z,0.00
2019-03-16T01:10:01.626Z,0.00
2019-03-16T01:11:01.614Z,0.00
2019-03-16T01:12:01.595Z,0.00
2019-03-16T01:13:01.587Z,0.00
2019-03-16T01:14:01.594Z,0.00
2019-03-16T01:15:01.584Z,0.00
2019-03-16T01:16:01.550Z,0.00
2019-03-16T01:17:01.537Z,0.00
2019-03-16T01:18:01.553Z,0.00
2019-03-16T01:19:01.529Z,0.00
2019-03-16T01:20:01.535Z,0.00
2019-03-16T01:21:01.503Z,0.00
2019-03-16T01:22:01.491Z,0.00
2019-03-16T01:23:01.475Z,0.00
2019-03-16T01:24:01.471Z,0.00
2019-03-16T01:25:01.476Z,0.00
2019-03-16T01:26:01.441Z,0.00
2019-03-16T01:27:01.431Z,0.00
2019-03-16T01:28:01.418Z,0.00
2019-03-16T01:29:01.405Z,0.00
2019-03-16T01:30:01.449Z,0.00
2019-03-16T01:31:01.389Z,0.00
2019-03-16T01:32:01.389Z,0.00
2019-03-16T01:33:01.372Z,0.00
2019-03-16T01:34:01.356Z,0.00
2019-03-16T01:35:01.351Z,0.00
2019-03-16T01:36:01.373Z,0.00
2019-03-16T01:37:01.327Z,0.00
2019-03-16T01:38:01.333Z,0.00
2019-03-16T01:39:01.299Z,0.00
2019-03-16T01:40:01.318Z,0.00
2019-03-16T01:41:01.276Z,0.00
2019-03-16T01:42:01.319Z,0.00
2019-03-16T01:43:01.266Z,0.00
2019-03-16T01:44:01.267Z,0.00
2019-03-16T01:45:01.265Z,0.00
2019-03-16T01:46:01.226Z,0.00
2019-03-16T01:47:01.242Z,0.00
2019-03-16T01:48:01.201Z,0.00
2019-03-16T01:49:01.199Z,0.00
2019-03-16T01:50:01.194Z,0.00
2019-03-16T01:51:01.175Z,0.00
2019-03-16T01:52:01.208Z,0.00
2019-03-16T01:53:01.146Z,0.00
2019-03-16T01:54:01.139Z,0.00
2019-03-16T01:55:01.154Z,0.00
2019-03-16T01:56:01.129Z,0.00
2019-03-16T01:57:01.109Z,0.00
2019-03-16T01:58:01.113Z,0.00
2019-03-16T01:59:01.100Z,0.00
2019-03-16T02:00:01.070Z,0.00
2019-03-16T02:01:01.064Z,0.00
2019-03-16T02:02:01.063Z,0.00
2019-03-16T02:03:01.077Z,0.00
2019-03-16T02:04:01.039Z,0.00
2019-03-16T02:05:01.024Z,0.00
2019-03-16T02:06:01.007Z,0.00
2019-03-16T02:07:00.990Z,0.00
2019-03-16T02:08:00.984Z,0.00
2019-03-16T02:09:00.996Z,0.00
2019-03-16T02:10:00.961Z,0.00
2019-03-16T02:11:00.955Z,0.00
2019-03-16T02:12:00.962Z,0.00
2019-03-16T02:13:00.927Z,0.00
2019-03-16T02:14:00.952Z,0.00
2019-03-16T02:15:00.922Z,0.00
2019-03-16T02:16:10.797Z,0.00
2019-03-16T02:17:01.887Z,0.00
2019-03-16T02:18:00.888Z,0.00
2019-03-16T02:19:00.892Z,0.00
2019-03-16T02:20:00.855Z,0.00
2019-03-16T02:21:00.844Z,0.00
2019-03-16T02:22:00.838Z,0.00
2019-03-16T02:23:00.826Z,0.00
2019-03-16T02:24:00.842Z,0.00
2019-03-16T02:25:00.801Z,0.00
2019-03-16T02:26:00.861Z,0.00
2019-03-16T02:27:00.793Z,0.00
2019-03-16T02:28:00.771Z,0.00
2019-03-16T02:29:00.770Z,0.00
2019-03-16T02:30:00.780Z,0.00
2019-03-16T02:31:00.733Z,0.00
2019-03-16T02:32:00.731Z,0.00
2019-03-16T02:33:12.785Z,0.00
2019-03-16T02:34:01.722Z,0.00
2019-03-16T02:35:00.723Z,0.00
2019-03-16T02:36:00.687Z,0.00
2019-03-16T02:37:00.682Z,0.00
2019-03-16T02:38:00.714Z,0.00
2019-03-16T02:39:00.688Z,0.00
2019-03-16T02:40:00.758Z,0.00
2019-03-16T02:41:00.642Z,0.00
2019-03-16T02:42:00.689Z,0.00
2019-03-16T02:43:00.630Z,0.00
2019-03-16T02:44:00.910Z,0.00
2019-03-16T02:45:00.617Z,0.00
2019-03-16T02:46:00.619Z,0.00
2019-03-16T02:47:00.593Z,0.00
2019-03-16T02:48:00.669Z,0.00
2019-03-16T02:49:00.588Z,0.00
2019-03-16T02:50:00.730Z,0.00
2019-03-16T02:51:00.666Z,0.00
2019-03-16T02:52:00.516Z,0.00
2019-03-16T02:53:00.547Z,0.00
2019-03-16T02:54:00.515Z,0.00
2019-03-16T02:55:00.639Z,0.00
2019-03-16T02:56:00.533Z,0.00
2019-03-16T02:57:00.586Z,0.00
2019-03-16T02:58:00.485Z,0.00
2019-03-16T02:59:00.477Z,0.00
2019-03-16T03:00:00.562Z,0.00
2019-03-16T03:01:00.433Z,0.00
2019-03-16T03:02:01.207Z,0.00
2019-03-16T03:03:00.411Z,0.00
2019-03-16T03:04:00.367Z,0.00
2019-03-16T03:05:00.695Z,0.00
2019-03-16T03:06:01.136Z,0.00
2019-03-16T03:07:00.397Z,0.00
2019-03-16T03:08:00.351Z,0.00
2019-03-16T03:09:00.341Z,0.00
2019-03-16T03:10:00.455Z,0.00
2019-03-16T03:11:00.323Z,0.00
2019-03-16T03:12:00.480Z,0.00
2019-03-16T03:13:00.312Z,0.00
2019-03-16T03:14:00.291Z,0.00
2019-03-16T03:15:00.703Z,0.00
2019-03-16T03:16:00.290Z,0.00
2019-03-16T03:17:00.229Z,0.00
2019-03-16T03:18:00.229Z,0.00
2019-03-16T03:19:00.209Z,0.00
2019-03-16T03:20:00.480Z,0.00
2019-03-16T03:21:00.197Z,0.00
2019-03-16T03:22:00.209Z,0.00
2019-03-16T03:23:00.171Z,0.00
2019-03-16T03:24:00.152Z,0.00
2019-03-16T03:25:00.354Z,0.00
2019-03-16T03:26:00.161Z,0.00
2019-03-16T03:27:00.182Z,0.00
2019-03-16T03:28:00.158Z,0.00
2019-03-16T03:29:09.202Z,0.00
2019-03-16T03:30:09.230Z,0.00
2019-03-16T03:31:00.073Z,0.00
2019-03-16T03:32:08.696Z,0.00
2019-03-16T03:33:00.074Z,0.00
2019-03-16T03:34:02.535Z,0.00
2019-03-16T03:35:00.034Z,0.00
2019-03-16T03:36:00.017Z,0.00
2019-03-16T03:37:00.002Z,0.00
2019-03-16T03:38:00.026Z,0.00
2019-03-16T03:38:59.989Z,0.00
2019-03-16T03:39:59.972Z,0.00
2019-03-16T03:41:01.924Z,0.00
2019-03-16T03:41:59.960Z,0.00
2019-03-16T03:42:59.971Z,0.00
2019-03-16T03:43:59.943Z,0.00
2019-03-16T03:44:59.945Z,0.00
2019-03-16T03:45:59.952Z,0.00
2019-03-16T03:46:59.907Z,0.00
2019-03-16T03:47:59.946Z,0.00
2019-03-16T03:48:59.908Z,0.00
2019-03-16T03:49:59.873Z,0.00
2019-03-16T03:50:59.859Z,0.00
2019-03-16T03:51:59.866Z,0.00
2019-03-16T03:52:59.877Z,0.00
2019-03-16T03:53:59.869Z,0.00
2019-03-16T03:54:59.931Z,0.00
2019-03-16T03:55:59.861Z,0.00
2019-03-16T03:56:59.809Z,0.00
2019-03-16T03:57:59.794Z,0.00
2019-03-16T03:58:59.781Z,0.00
2019-03-16T03:59:59.778Z,0.00
2019-03-16T04:00:59.786Z,0.00
2019-03-16T04:01:59.738Z,0.00
2019-03-16T04:02:59.727Z,0.00
2019-03-16T04:04:14.335Z,0.00
2019-03-16T04:05:00.725Z,0.00
2019-03-16T04:05:59.703Z,0.00
2019-03-16T04:06:59.718Z,0.00
2019-03-16T04:07:59.670Z,0.00
2019-03-16T04:08:59.661Z,0.00
2019-03-16T04:09:59.665Z,0.00
2019-03-16T04:10:59.684Z,0.00
2019-03-16T04:11:59.636Z,0.00
2019-03-16T04:12:59.623Z,0.00
2019-03-16T04:13:59.605Z,0.00
2019-03-16T04:14:59.652Z,0.00
2019-03-16T04:15:59.599Z,0.00
2019-03-16T04:16:59.585Z,0.00
2019-03-16T04:17:59.568Z,0.00
2019-03-16T04:18:59.558Z,0.00
2019-03-16T04:19:59.540Z,0.00
2019-03-16T04:20:59.562Z,0.00
2019-03-16T04:21:59.527Z,0.00
2019-03-16T04:22:59.507Z,0.00
2019-03-16T04:23:59.519Z,0.00
2019-03-16T04:24:59.493Z,0.00
2019-03-16T04:25:59.502Z,0.00
2019-03-16T04:27:14.636Z,0.00
2019-03-16T04:28:00.480Z,0.00
2019-03-16T04:28:59.458Z,0.00
2019-03-16T04:29:59.443Z,0.00
2019-03-16T04:30:59.430Z,0.00
2019-03-16T04:31:59.413Z,0.00
2019-03-16T04:32:59.423Z,0.00
2019-03-16T04:33:59.390Z,0.00
2019-03-16T04:34:59.379Z,0.00
2019-03-16T04:35:59.372Z,0.00
2019-03-16T04:36:59.359Z,0.00
2019-03-16T04:37:59.375Z,0.00
2019-03-16T04:38:59.370Z,0.00
2019-03-16T04:39:59.330Z,0.00
2019-03-16T04:40:59.321Z,0.00
2019-03-16T04:41:59.315Z,0.00
2019-03-16T04:42:59.291Z,0.00
2019-03-16T04:43:59.302Z,0.00
2019-03-16T04:44:59.271Z,0.00
2019-03-16T04:45:59.257Z,0.00
2019-03-16T04:46:59.240Z,0.00
2019-03-16T04:47:59.242Z,0.00
2019-03-16T04:48:59.252Z,0.00
2019-03-16T04:49:59.226Z,0.00
2019-03-16T04:50:59.211Z,0.00
2019-03-16T04:51:59.263Z,4.00
2019-03-16T04:52:59.178Z,4.00
2019-03-16T04:53:59.221Z,0.00
2019-03-16T04:54:59.159Z,4.00
2019-03-16T04:55:59.229Z,4.00
2019-03-16T04:56:59.155Z,4.00
2019-03-16T04:57:59.135Z,8.00
2019-03-16T04:58:59.123Z,4.00
2019-03-16T04:59:59.144Z,4.00
2019-03-16T05:00:59.108Z,4.00
2019-03-16T05:01:59.091Z,12.00
2019-03-16T05:02:59.077Z,12.00
2019-03-16T05:03:59.064Z,12.00
2019-03-16T05:04:59.084Z,12.00
2019-03-16T05:05:59.037Z,16.00
2019-03-16T05:06:59.059Z,20.00
2019-03-16T05:07:59.111Z,24.00
2019-03-16T05:08:59.011Z,28.00
2019-03-16T05:09:59.023Z,32.00
2019-03-16T05:10:59.014Z,36.00
2019-03-16T05:11:58.976Z,44.00
2019-03-16T05:12:58.960Z,52.00
2019-03-16T05:13:59.036Z,56.00
2019-03-16T05:14:58.954Z,68.00
2019-03-16T05:15:58.956Z,80.00
2019-03-16T05:16:58.917Z,88.00
2019-03-16T05:17:58.908Z,92.00
2019-03-16T05:18:58.902Z,96.00
2019-03-16T05:19:58.903Z,100.00
2019-03-16T05:20:58.912Z,108.00
2019-03-16T05:21:58.867Z,112.00
2019-03-16T05:22:58.881Z,116.00
2019-03-16T05:23:58.839Z,120.00
2019-03-16T05:24:58.831Z,124.00
2019-03-16T05:25:58.844Z,136.00
2019-03-16T05:26:58.827Z,144.00
2019-03-16T05:27:58.885Z,156.00
2019-03-16T05:28:58.794Z,172.00
2019-03-16T05:29:58.872Z,188.00
2019-03-16T05:30:58.919Z,208.00
2019-03-16T05:31:58.773Z,236.00
2019-03-16T05:32:58.761Z,260.00
2019-03-16T05:33:58.784Z,276.00
2019-03-16T05:34:58.812Z,296.00
2019-03-16T05:35:58.870Z,312.00
2019-03-16T05:36:58.789Z,328.00
2019-03-16T05:37:58.752Z,360.00
2019-03-16T05:38:58.674Z,400.00
2019-03-16T05:39:58.739Z,440.00
2019-03-16T05:40:58.718Z,484.00
2019-03-16T05:41:58.743Z,512.00
2019-03-16T05:42:58.673Z,528.00
2019-03-16T05:43:58.674Z,540.00
2019-03-16T05:44:58.609Z,552.00
2019-03-16T05:45:58.628Z,572.00
2019-03-16T05:46:58.711Z,592.00
2019-03-16T05:47:58.578Z,616.00
2019-03-16T05:48:58.574Z,628.00
2019-03-16T05:49:58.566Z,632.00
2019-03-16T05:50:58.553Z,648.00
2019-03-16T05:51:58.541Z,680.00
2019-03-16T05:52:58.550Z,724.00
2019-03-16T05:53:58.546Z,760.00
2019-03-16T05:54:58.501Z,788.00
2019-03-16T05:55:58.499Z,844.00
2019-03-16T05:56:58.571Z,876.00
2019-03-16T05:57:58.468Z,896.00
2019-03-16T05:58:58.482Z,932.00
2019-03-16T05:59:58.453Z,976.00
2019-03-16T06:00:58.433Z,1004.00
2019-03-16T06:01:58.427Z,1024.00
2019-03-16T06:02:58.419Z,1072.00
2019-03-16T06:03:58.425Z,1132.00
2019-03-16T06:05:09.881Z,1172.00
2019-03-16T06:06:49.812Z,1256.00
2019-03-16T06:07:49.800Z,1312.00
2019-03-16T06:08:49.904Z,1368.00
2019-03-16T06:09:49.821Z,1400.00
2019-03-16T06:10:49.788Z,1416.00
2019-03-16T06:11:49.759Z,1428.00
2019-03-16T06:12:49.754Z,1464.00
2019-03-16T06:13:49.737Z,1516.00
2019-03-16T06:14:49.766Z,1592.00
2019-03-16T06:15:49.716Z,1692.00
2019-03-16T06:16:49.700Z,1804.00
2019-03-16T06:17:49.698Z,1884.00
2019-03-16T06:18:49.685Z,1924.00
2019-03-16T06:19:49.685Z,1952.00
2019-03-16T06:20:49.685Z,2068.00
2019-03-16T06:21:49.649Z,2332.00
2019-03-16T06:22:49.643Z,2176.00
2019-03-16T06:23:49.713Z,2192.00
2019-03-16T06:24:49.627Z,1960.00
2019-03-16T06:25:49.630Z,2104.00
2019-03-16T06:26:49.601Z,1928.00
2019-03-16T06:27:49.581Z,1908.00
2019-03-16T06:28:49.570Z,1944.00
2019-03-16T06:29:49.589Z,2388.00
2019-03-16T06:30:49.604Z,2700.00
2019-03-16T06:31:49.543Z,2760.00
2019-03-16T06:32:49.540Z,2576.00
2019-03-16T06:33:49.615Z,2492.00
2019-03-16T06:34:49.510Z,2284.00
2019-03-16T06:35:49.511Z,2544.00
2019-03-16T06:36:49.545Z,2748.00
2019-03-16T06:37:49.482Z,2412.00
2019-03-16T06:38:49.471Z,2204.00
2019-03-16T06:39:49.490Z,2336.00
2019-03-16T06:40:49.460Z,2468.00
2019-03-16T06:41:49.454Z,2100.00
2019-03-16T06:42:49.424Z,1828.00
2019-03-16T06:43:49.416Z,1844.00
2019-03-16T06:44:49.408Z,1892.00
2019-03-16T06:45:49.391Z,2416.00
2019-03-16T06:46:49.403Z,2244.00
2019-03-16T06:47:49.368Z,2216.00
2019-03-16T06:48:49.378Z,2096.00
2019-03-16T06:49:49.358Z,2672.00
2019-03-16T06:50:49.339Z,2604.00
2019-03-16T06:51:49.339Z,2444.00
2019-03-16T06:52:49.321Z,2564.00
2019-03-16T06:53:49.328Z,2936.00
2019-03-16T06:54:49.292Z,2404.00
2019-03-16T06:55:49.281Z,2452.00
2019-03-16T06:56:49.294Z,2344.00
2019-03-16T06:57:49.329Z,2636.00
2019-03-16T06:58:49.257Z,2676.00
2019-03-16T06:59:49.266Z,2720.00
2019-03-16T07:00:49.228Z,2480.00
2019-03-16T07:01:49.222Z,2472.00
2019-03-16T07:02:49.219Z,2352.00
2019-03-16T07:03:49.265Z,2436.00
2019-03-16T07:04:49.220Z,2460.00
2019-03-16T07:05:49.175Z,2480.00
2019-03-16T07:06:49.164Z,2832.00
2019-03-16T07:07:49.161Z,3260.00
2019-03-16T07:08:49.143Z,3800.00
2019-03-16T07:09:49.139Z,4116.00
2019-03-16T07:10:49.149Z,4264.00
2019-03-16T07:11:49.128Z,4468.00
2019-03-16T07:12:49.106Z,3928.00
2019-03-16T07:13:49.108Z,4216.00
2019-03-16T07:14:49.098Z,4172.00
2019-03-16T07:15:49.101Z,4228.00
2019-03-16T07:17:01.520Z,4420.00
2019-03-16T07:17:50.046Z,4424.00
2019-03-16T07:18:58.263Z,4564.00
2019-03-16T07:19:50.044Z,4536.00
2019-03-16T07:20:49.018Z,4576.00
2019-03-16T07:21:49.010Z,4600.00
2019-03-16T07:22:49.001Z,4524.00
2019-03-16T07:23:49.011Z,4656.00
2019-03-16T07:24:51.551Z,4576.00
2019-03-16T07:25:48.964Z,4728.00
2019-03-16T07:26:48.980Z,4824.00
2019-03-16T07:27:48.948Z,4640.00
2019-03-16T07:28:48.930Z,4732.00
2019-03-16T07:29:48.922Z,4972.00
2019-03-16T07:30:48.924Z,4788.00
2019-03-16T07:31:48.898Z,4872.00
2019-03-16T07:32:48.927Z,5060.00
2019-03-16T07:33:48.881Z,5276.00
2019-03-16T07:34:48.875Z,5436.00
2019-03-16T07:35:48.863Z,5300.00
2019-03-16T07:36:48.849Z,5432.00
2019-03-16T07:37:48.844Z,5168.00
2019-03-16T07:38:48.857Z,4956.00
2019-03-16T07:39:48.815Z,5428.00
2019-03-16T07:40:48.800Z,5596.00
2019-03-16T07:41:48.796Z,5464.00
2019-03-16T07:42:48.790Z,5888.00
2019-03-16T07:43:48.796Z,5904.00
2019-03-16T07:44:48.769Z,5932.00
2019-03-16T07:45:48.760Z,6104.00
2019-03-16T07:46:48.744Z,6604.00
2019-03-16T07:47:48.734Z,6392.00
2019-03-16T07:48:48.753Z,6352.00
2019-03-16T07:49:48.706Z,6312.00
2019-03-16T07:50:48.699Z,6004.00
2019-03-16T07:51:48.689Z,6068.00
2019-03-16T07:52:48.675Z,6180.00
2019-03-16T07:53:48.671Z,6128.00
2019-03-16T07:54:48.679Z,6284.00
2019-03-16T07:55:48.650Z,6536.00
2019-03-16T07:56:48.665Z,6692.00
2019-03-16T07:57:48.624Z,6680.00
2019-03-16T07:58:48.610Z,6772.00
2019-03-16T07:59:48.662Z,6860.00
2019-03-16T08:00:48.594Z,6188.00
2019-03-16T08:01:48.584Z,6536.00
2019-03-16T08:02:48.573Z,5816.00
2019-03-16T08:03:48.557Z,6176.00
2019-03-16T08:04:48.550Z,5888.00
2019-03-16T08:05:48.560Z,6324.00
2019-03-16T08:06:48.534Z,6224.00
2019-03-16T08:07:48.664Z,6672.00
2019-03-16T08:08:48.556Z,7168.00
2019-03-16T08:09:48.527Z,7536.00
2019-03-16T08:10:48.481Z,7876.00
2019-03-16T08:11:48.468Z,7688.00
2019-03-16T08:12:48.461Z,6872.00
2019-03-16T08:13:48.450Z,5592.00
2019-03-16T08:14:48.440Z,6840.00
2019-03-16T08:15:48.474Z,7556.00
2019-03-16T08:16:48.420Z,7104.00
2019-03-16T08:17:48.403Z,6708.00
2019-03-16T08:18:48.390Z,7372.00
2019-03-16T08:19:48.390Z,7052.00
2019-03-16T08:20:48.400Z,7156.00
2019-03-16T08:21:48.396Z,7412.00
2019-03-16T08:22:48.353Z,7132.00
2019-03-16T08:23:48.340Z,6488.00
2019-03-16T08:24:48.328Z,4876.00
2019-03-16T08:25:48.331Z,5688.00
2019-03-16T08:26:48.309Z,6308.00
2019-03-16T08:27:53.942Z,6464.00
2019-03-16T08:28:49.302Z,6224.00
2019-03-16T08:29:48.271Z,5664.00
2019-03-16T08:30:48.284Z,5740.00
2019-03-16T08:31:48.265Z,5868.00
2019-03-16T08:32:48.266Z,5884.00
2019-03-16T08:33:48.232Z,6036.00
2019-03-16T08:34:48.224Z,6228.00
2019-03-16T08:35:48.226Z,5712.00
2019-03-16T08:36:48.197Z,5612.00
2019-03-16T08:37:48.200Z,5856.00
2019-03-16T08:38:48.179Z,6004.00
2019-03-16T08:39:48.190Z,7012.00
2019-03-16T08:40:48.181Z,7572.00
2019-03-16T08:41:48.140Z,7624.00
2019-03-16T08:42:48.153Z,6520.00
2019-03-16T08:43:48.122Z,7320.00
2019-03-16T08:44:48.107Z,6700.00
2019-03-16T08:45:48.166Z,8340.00
2019-03-16T08:46:48.117Z,8288.00
2019-03-16T08:47:48.083Z,7360.00
2019-03-16T08:48:48.095Z,7260.00
2019-03-16T08:49:48.055Z,6724.00
2019-03-16T08:50:48.040Z,5656.00
2019-03-16T08:51:48.101Z,5868.00
2019-03-16T08:52:48.029Z,6800.00
2019-03-16T08:53:48.019Z,6992.00
2019-03-16T08:54:47.996Z,7488.00
2019-03-16T08:55:48.020Z,7584.00
2019-03-16T08:56:47.976Z,7372.00
2019-03-16T08:57:48.003Z,6560.00
2019-03-16T08:58:47.960Z,7636.00
2019-03-16T08:59:47.959Z,8792.00
2019-03-16T09:00:47.938Z,8380.00
2019-03-16T09:01:47.922Z,8792.00
2019-03-16T09:02:47.909Z,7904.00
2019-03-16T09:03:47.935Z,6948.00
2019-03-16T09:04:47.889Z,15016.00
2019-03-16T09:05:47.884Z,17152.00
2019-03-16T09:06:47.871Z,13180.00
2019-03-16T09:07:47.855Z,11356.00
2019-03-16T09:08:47.846Z,7012.00
2019-03-16T09:09:47.861Z,8980.00
2019-03-16T09:10:47.838Z,7760.00
2019-03-16T09:11:47.822Z,13148.00
2019-03-16T09:12:54.938Z,13064.00
2019-03-16T09:13:48.791Z,11500.00
2019-03-16T09:14:47.801Z,7772.00
2019-03-16T09:15:47.773Z,12928.00
2019-03-16T09:16:47.765Z,12956.00
2019-03-16T09:17:47.781Z,10396.00
2019-03-16T09:18:47.747Z,5800.00
2019-03-16T09:19:47.763Z,7372.00
2019-03-16T09:20:47.725Z,9568.00
2019-03-16T09:21:47.708Z,13380.00
2019-03-16T09:22:47.697Z,9204.00
2019-03-16T09:23:47.689Z,11984.00
2019-03-16T09:24:47.683Z,6556.00
2019-03-16T09:25:47.710Z,9268.00
2019-03-16T09:26:47.651Z,7664.00
2019-03-16T09:27:47.647Z,10672.00
2019-03-16T09:28:59.352Z,6032.00
2019-03-16T09:29:48.623Z,10540.00
2019-03-16T09:30:47.616Z,7824.00
2019-03-16T09:31:47.603Z,12532.00
2019-03-16T09:32:47.615Z,15744.00
2019-03-16T09:33:47.598Z,10012.00
2019-03-16T09:34:47.568Z,8932.00
2019-03-16T09:35:47.580Z,17504.00
2019-03-16T09:36:47.566Z,20864.00
2019-03-16T09:37:47.563Z,10548.00
2019-03-16T09:38:47.555Z,11516.00
2019-03-16T09:39:47.512Z,20320.00
2019-03-16T09:40:47.503Z,17216.00
2019-03-16T09:41:47.497Z,10612.00
2019-03-16T09:42:47.491Z,6432.00
2019-03-16T09:43:47.510Z,8176.00
2019-03-16T09:44:47.464Z,8760.00
2019-03-16T09:45:47.451Z,8340.00
2019-03-16T09:46:47.436Z,13000.00
2019-03-16T09:47:47.426Z,12456.00
2019-03-16T09:48:47.415Z,8316.00
2019-03-16T09:49:47.445Z,12832.00
2019-03-16T09:50:47.409Z,16288.00
2019-03-16T09:51:47.389Z,16384.00
2019-03-16T09:52:47.380Z,15376.00
2019-03-16T09:53:47.360Z,17280.00
2019-03-16T09:54:47.377Z,10600.00
2019-03-16T09:55:47.347Z,7352.00
2019-03-16T09:57:00.253Z,9908.00
2019-03-16T09:57:48.318Z,10320.00
2019-03-16T09:58:47.307Z,17056.00
2019-03-16T09:59:47.329Z,17792.00
2019-03-16T10:00:47.285Z,6488.00
2019-03-16T10:01:47.281Z,8972.00
2019-03-16T10:02:47.275Z,7544.00
2019-03-16T10:03:47.264Z,14428.00
2019-03-16T10:04:47.251Z,8992.00
2019-03-16T10:05:47.262Z,5796.00
2019-03-16T10:06:47.223Z,8356.00
2019-03-16T10:07:47.211Z,8524.00
2019-03-16T10:08:47.204Z,11700.00
2019-03-16T10:09:47.200Z,23360.00
2019-03-16T10:10:47.193Z,10588.00
2019-03-16T10:11:47.192Z,10448.00
2019-03-16T10:12:47.160Z,13084.00
2019-03-16T10:13:47.158Z,15564.00
2019-03-16T10:14:47.154Z,12908.00
2019-03-16T10:15:47.131Z,9420.00
2019-03-16T10:16:47.146Z,9120.00
2019-03-16T10:17:47.104Z,15084.00
2019-03-16T10:18:47.093Z,19680.00
2019-03-16T10:19:47.081Z,10120.00
2019-03-16T10:20:47.074Z,9592.00
2019-03-16T10:21:47.970Z,10608.00
2019-03-16T10:22:47.058Z,8972.00
2019-03-16T10:23:47.048Z,7448.00
2019-03-16T10:24:47.036Z,5364.00
2019-03-16T10:25:47.019Z,4856.00
2019-03-16T10:26:47.042Z,5708.00
2019-03-16T10:27:47.030Z,9084.00
2019-03-16T10:28:46.994Z,10092.00
2019-03-16T10:29:46.988Z,7888.00
2019-03-16T10:30:46.970Z,10136.00
2019-03-16T10:31:47.010Z,10568.00
2019-03-16T10:32:46.975Z,9320.00
2019-03-16T10:33:46.953Z,8988.00
2019-03-16T10:34:46.965Z,10060.00
2019-03-16T10:35:46.916Z,10564.00
2019-03-16T10:36:46.913Z,7828.00
2019-03-16T10:37:46.903Z,5984.00
2019-03-16T10:38:46.907Z,7104.00
2019-03-16T10:39:46.868Z,7112.00
2019-03-16T10:40:46.857Z,7920.00
2019-03-16T10:41:46.855Z,7696.00
2019-03-16T10:42:46.845Z,7128.00
2019-03-16T10:43:46.860Z,7228.00
2019-03-16T10:44:46.825Z,7200.00
2019-03-16T10:45:46.818Z,7012.00
2019-03-16T10:46:46.798Z,8072.00
2019-03-16T10:47:46.810Z,8228.00
2019-03-16T10:48:46.781Z,8740.00
2019-03-16T10:49:46.792Z,9656.00
2019-03-16T10:50:46.758Z,9244.00
2019-03-16T10:51:46.742Z,7108.00
2019-03-16T10:52:46.734Z,6344.00
2019-03-16T10:53:46.726Z,7372.00
2019-03-16T10:54:46.718Z,7272.00
2019-03-16T10:55:46.737Z,7004.00
2019-03-16T10:56:46.696Z,6848.00
2019-03-16T10:57:46.676Z,6224.00
2019-03-16T10:58:56.157Z,5500.00
2019-03-16T10:59:47.684Z,5152.00
2019-03-16T11:00:46.652Z,5092.00
2019-03-16T11:01:46.635Z,5384.00
2019-03-16T11:02:46.623Z,5500.00
2019-03-16T11:03:46.612Z,5872.00
2019-03-16T11:04:46.621Z,5712.00
2019-03-16T11:05:46.628Z,5452.00
2019-03-16T11:06:46.589Z,5368.00
2019-03-16T11:07:46.576Z,4780.00
2019-03-16T11:08:46.580Z,4524.00
2019-03-16T11:09:46.547Z,4288.00
2019-03-16T11:10:46.535Z,4684.00
2019-03-16T11:11:46.550Z,5076.00
2019-03-16T11:12:46.517Z,5020.00
2019-03-16T11:13:46.532Z,4820.00
2019-03-16T11:14:46.521Z,4416.00
2019-03-16T11:15:46.486Z,4336.00
2019-03-16T11:16:46.472Z,4448.00
2019-03-16T11:17:46.467Z,4996.00
2019-03-16T11:18:46.490Z,4736.00
2019-03-16T11:19:46.454Z,4640.00
2019-03-16T11:20:46.435Z,4620.00
2019-03-16T11:21:46.424Z,4556.00
2019-03-16T11:22:46.415Z,4384.00
2019-03-16T11:23:46.431Z,4244.00
2019-03-16T11:24:46.389Z,3776.00
2019-03-16T11:25:46.383Z,3672.00
2019-03-16T11:26:46.369Z,3920.00
2019-03-16T11:27:46.362Z,4168.00
2019-03-16T11:28:46.348Z,4192.00
2019-03-16T11:29:46.355Z,4112.00
2019-03-16T11:30:46.345Z,3928.00
2019-03-16T11:31:46.316Z,3872.00
2019-03-16T11:32:46.311Z,4044.00
2019-03-16T11:33:48.431Z,4128.00
2019-03-16T11:34:46.279Z,4160.00
2019-03-16T11:35:46.295Z,4260.00
2019-03-16T11:36:46.260Z,4148.00
2019-03-16T11:37:46.251Z,4052.00
2019-03-16T11:38:46.241Z,4084.00
2019-03-16T11:39:46.230Z,3956.00
2019-03-16T11:40:46.219Z,3580.00
2019-03-16T11:41:46.240Z,3412.00
2019-03-16T11:42:46.196Z,3392.00
2019-03-16T11:43:46.181Z,3256.00
2019-03-16T11:44:46.173Z,3092.00
2019-03-16T11:45:46.167Z,3060.00
2019-03-16T11:46:46.166Z,3100.00
2019-03-16T11:47:46.276Z,3116.00
2019-03-16T11:48:46.131Z,3112.00
2019-03-16T11:49:46.123Z,3136.00
2019-03-16T11:50:48.809Z,3208.00
2019-03-16T11:51:46.104Z,3256.00
2019-03-16T11:52:46.121Z,3236.00
2019-03-16T11:53:46.080Z,3180.00
2019-03-16T11:54:46.065Z,3072.00
2019-03-16T11:55:46.054Z,2948.00
2019-03-16T11:56:46.047Z,2852.00
2019-03-16T11:57:46.067Z,2780.00
2019-03-16T11:58:46.033Z,2832.00
2019-03-16T11:59:46.020Z,2880.00
2019-03-16T12:00:46.043Z,2980.00
2019-03-16T12:01:45.994Z,3128.00
2019-03-16T12:02:46.002Z,3280.00
2019-03-16T12:03:45.977Z,3332.00
2019-03-16T12:04:45.966Z,3420.00
2019-03-16T12:06:42.063Z,3384.00
2019-03-16T12:07:42.068Z,3284.00
2019-03-16T12:08:42.056Z,3264.00
2019-03-16T12:09:42.025Z,3184.00
2019-03-16T12:10:42.009Z,3092.00
2019-03-16T12:11:42.012Z,3124.00
2019-03-16T12:12:42.177Z,3160.00
2019-03-16T12:13:43.945Z,3104.00
2019-03-16T12:14:41.977Z,2996.00
2019-03-16T12:15:41.961Z,2912.00
2019-03-16T12:16:41.946Z,2872.00
2019-03-16T12:17:41.965Z,2820.00
2019-03-16T12:18:41.928Z,2712.00
2019-03-16T12:19:41.941Z,2560.00
2019-03-16T12:20:41.910Z,2452.00
2019-03-16T12:21:41.900Z,2204.00
2019-03-16T12:22:41.901Z,1836.00
2019-03-16T12:23:41.880Z,1864.00
2019-03-16T12:24:41.859Z,1684.00
2019-03-16T12:25:41.876Z,1744.00
2019-03-16T12:26:41.844Z,2044.00
2019-03-16T12:27:41.840Z,1768.00
2019-03-16T12:28:41.821Z,1556.00
2019-03-16T12:29:41.807Z,1532.00
2019-03-16T12:30:41.834Z,1980.00
2019-03-16T12:31:41.808Z,2668.00
2019-03-16T12:32:41.791Z,2620.00
2019-03-16T12:33:41.772Z,2604.00
2019-03-16T12:34:41.757Z,2500.00
2019-03-16T12:35:41.782Z,2232.00